MOL Paramount — 3ECH9 — position and weather

sailwx.info

Track history (hours):
 
Tides and Currents Weather Stations Pressure Air Temp Water Temp Dewpoint Dewpoint Depression Visibility Wind Speed Wind Dir Waves Ship Positions

MOL Paramount

Last reported at 2018-Feb-18 20:17 UTC. Time now 2018-Feb-19 05:48 UTC.
Position N 38°27' E 015°54'.

Length 293 m; draft 11.7 m.

Type: Cargo ship. MMSI: 371519000.

Date/timePositionNaut miles runAvg speedWind from/ knotsBaromVisibWave heightAir tempDewpointWater temp
2018-Feb-18 20:17N 38°27' E 015°54'8 7.3
2018-Feb-18 19:08N 38°33' E 015°47'215.0
2018-Feb-18 18:59N 38°35' E 015°45'917.8
2018-Feb-18 18:28N 38°43' E 015°39'1018.2
2018-Feb-18 17:57N 38°51' E 015°32'918.0
2018-Feb-18 17:28N 38°58' E 015°27'918.2
2018-Feb-18 17:00N 39°05' E 015°20'1918.3
2018-Feb-18 15:58N 39°21' E 015°07'918.5
2018-Feb-18 15:28N 39°28' E 014°60'1818.4
2018-Feb-18 14:29N 39°44' E 014°48'918.0
2018-Feb-18 14:00N 39°51' E 014°42'3118.3
2018-Feb-18 12:18N 40°17' E 014°20'1819.4
2018-Feb-18 11:24N 40°31' E 014°06'718.8
2018-Feb-18 11:00N 40°38' E 014°10'917.6
2018-Feb-18 10:30N 40°45' E 014°16'5 9.0
2018-Feb-18 09:59N 40°50' E 014°17'0 0.4
2018-Feb-18 09:25N 40°50' E 014°17'0 0.0
2018-Feb-18 08:58N 40°50' E 014°17'0 0.0
2018-Feb-18 08:28N 40°50' E 014°17'0 0.0
2018-Feb-18 07:55N 40°50' E 014°17'0 0.0
2018-Feb-18 07:01N 40°50' E 014°17'0 0.1
2018-Feb-18 06:43N 40°50' E 014°17'20 1.7
2018-Feb-17 19:10N 40°39' E 013°56'316.1
2018-Feb-17 19:00N 40°39' E 013°53'915.9
2018-Feb-17 18:25N 40°41' E 013°41'20415.9
2018-Feb-17 05:35N 42°31' E 009°51'316.3
2018-Feb-17 05:24N 42°34' E 009°49'3316.0
2018-Feb-17 03:19N 43°05' E 009°36'515.9
2018-Feb-17 03:00N 43°10' E 009°38'816.4
2018-Feb-17 02:30N 43°18' E 009°40'816.7
2018-Feb-17 02:00N 43°26' E 009°42'816.3
2018-Feb-17 01:30N 43°34' E 009°44'816.2
2018-Feb-17 01:00N 43°42' E 009°47'816.8
2018-Feb-17 00:30N 43°51' E 009°49'816.5
2018-Feb-17 00:00N 43°59' E 009°51'611.1
2018-Feb-16 23:30N 44°04' E 009°51'2 4.3
2018-Feb-16 23:00N 44°06' E 009°51'0 0.0
2018-Feb-16 22:30N 44°06' E 009°51'0 0.0
2018-Feb-16 22:00N 44°06' E 009°51'0 0.0
2018-Feb-16 21:30N 44°06' E 009°51'0 0.0
2018-Feb-16 21:00N 44°06' E 009°51'0 0.0
2018-Feb-16 20:30N 44°06' E 009°51'0 0.0
2018-Feb-16 20:00N 44°06' E 009°51'0 0.0
2018-Feb-16 19:30N 44°06' E 009°51'0 0.0
2018-Feb-16 19:00N 44°06' E 009°51'0 0.0
2018-Feb-16 18:30N 44°06' E 009°51'0 0.0
2018-Feb-16 18:00N 44°06' E 009°51'0 0.0
2018-Feb-16 17:30N 44°06' E 009°51'0 0.0
2018-Feb-16 17:00N 44°06' E 009°51'0 0.0
2018-Feb-16 16:24N 44°06' E 009°51'0 0.0
2018-Feb-16 15:57N 44°06' E 009°51'0 0.0
2018-Feb-16 15:30N 44°06' E 009°51'0 0.0
2018-Feb-16 15:00N 44°06' E 009°51'0 0.0
2018-Feb-16 14:30N 44°06' E 009°51'0 0.0
2018-Feb-16 14:00N 44°06' E 009°51'0 0.0
2018-Feb-16 13:27N 44°06' E 009°51'0 0.0
2018-Feb-16 12:57N 44°06' E 009°51'0 0.0
2018-Feb-16 12:30N 44°06' E 009°51'0 0.7
2018-Feb-16 12:00N 44°06' E 009°51'3 6.8
2018-Feb-16 11:30N 44°03' E 009°52'4 8.6
2018-Feb-16 11:00N 43°60' E 009°56'2 4.0
2018-Feb-16 10:30N 43°58' E 009°55'0 0.6
2018-Feb-16 10:00N 43°58' E 009°55'1 2.1
2018-Feb-16 09:30N 43°57' E 009°55'2 4.2
2018-Feb-16 09:00N 43°55' E 009°52'2 4.6
2018-Feb-16 08:30N 43°58' E 009°52'1 2.1
2018-Feb-16 08:00N 43°57' E 009°53'612.1
2018-Feb-16 07:30N 43°52' E 009°48'612.5
2018-Feb-16 07:00N 43°51' E 009°40'713.5
2018-Feb-16 06:30N 43°49' E 009°31'713.3
2018-Feb-16 06:00N 43°47' E 009°22'713.3
2018-Feb-16 05:30N 43°44' E 009°14'713.3
2018-Feb-16 05:00N 43°41' E 009°05'713.5
2018-Feb-16 04:30N 43°39' E 008°57'713.3
2018-Feb-16 04:00N 43°36' E 008°48'713.8
2018-Feb-16 03:31N 43°34' E 008°40'714.1
2018-Feb-16 03:00N 43°31' E 008°31'714.8
2018-Feb-16 02:30N 43°28' E 008°21'4114.6
2018-Feb-15 23:43N 43°12' E 007°29'415.1
2018-Feb-15 23:27N 43°11' E 007°24'614.8
2018-Feb-15 23:01N 43°08' E 007°16'714.4
2018-Feb-15 22:30N 43°06' E 007°07'8013.3
2018-Feb-15 16:29N 43°04' E 005°18'612.9
2018-Feb-15 16:00N 43°06' E 005°10'612.5
2018-Feb-15 15:30N 43°08' E 005°01'613.1
2018-Feb-15 15:00N 43°14' E 004°60'713.2
2018-Feb-15 14:30N 43°20' E 004°58'5 9.7
2018-Feb-15 14:00N 43°24' E 004°53'2 4.7
2018-Feb-15 13:30N 43°25' E 004°51'0 0.7
2018-Feb-15 12:59N 43°25' E 004°50'0 0.0
2018-Feb-15 12:29N 43°25' E 004°50'0 0.0
2018-Feb-15 11:59N 43°25' E 004°50'0 0.0
2018-Feb-15 11:29N 43°25' E 004°50'0 0.0
2018-Feb-15 10:59N 43°25' E 004°50'0 0.0
2018-Feb-15 10:29N 43°25' E 004°50'0 0.0
2018-Feb-15 09:59N 43°25' E 004°50'0 0.0
2018-Feb-15 09:29N 43°25' E 004°50'0 0.0
2018-Feb-15 08:59N 43°25' E 004°50'0 0.0
2018-Feb-15 08:29N 43°25' E 004°50'0 0.0
2018-Feb-15 07:58N 43°25' E 004°50'0 0.0
2018-Feb-15 07:29N 43°25' E 004°50'0 0.0
2018-Feb-15 06:59N 43°25' E 004°50'0 0.0
2018-Feb-15 06:29N 43°25' E 004°50'0 0.0
2018-Feb-15 05:59N 43°25' E 004°50'0 0.0
2018-Feb-15 05:29N 43°25' E 004°50'0 0.0
2018-Feb-15 04:58N 43°25' E 004°50'0 0.0
2018-Feb-15 04:29N 43°25' E 004°50'1 1.7
2018-Feb-15 04:01N 43°25' E 004°51'4 8.3
2018-Feb-15 03:31N 43°23' E 004°56'4 8.1
2018-Feb-15 03:00N 43°20' E 004°59'3 5.1
2018-Feb-15 02:31N 43°17' E 005°00'3 5.9
2018-Feb-15 02:00N 43°15' E 005°02'510.1
2018-Feb-15 01:30N 43°10' E 005°04'510.2
2018-Feb-15 01:01N 43°05' E 005°03'4 8.1
2018-Feb-15 00:31N 43°01' E 005°01'4 8.1
2018-Feb-15 00:01N 42°58' E 004°58'368 9.2
2018-Feb-13 08:07N 38°09' W 000°02'315.4
2018-Feb-13 07:56N 38°06' W 000°04'715.6
2018-Feb-13 07:31N 38°00' W 000°07'816.0
2018-Feb-13 06:59N 37°53' W 000°13'1015.8
2018-Feb-13 06:20N 37°45' W 000°21'516.0
2018-Feb-13 06:00N 37°41' W 000°25'815.9
2018-Feb-13 05:30N 37°34' W 000°30'815.8
2018-Feb-13 05:00N 37°29' W 000°37'815.7
2018-Feb-13 04:30N 37°23' W 000°45'815.6
2018-Feb-13 04:01N 37°18' W 000°52'815.8
2018-Feb-13 03:31N 37°13' W 000°59'21315.2
2018-Feb-12 13:30N 36°01' W 005°09'918.2
2018-Feb-12 13:00N 35°60' W 005°20'917.3
2018-Feb-12 12:31N 35°57' W 005°30'22614.4
2018-Feb-11 20:51N 37°33' W 009°46'2316.0
2018-Feb-11 19:25N 37°55' W 009°53'716.3
2018-Feb-11 19:00N 38°02' W 009°54'816.8
2018-Feb-11 18:30N 38°10' W 009°57'816.9
2018-Feb-11 18:00N 38°18' W 009°59'816.8
2018-Feb-11 17:30N 38°26' W 010°02'816.7
2018-Feb-11 17:00N 38°34' W 010°04'816.8
2018-Feb-11 16:31N 38°42' W 010°07'816.9
2018-Feb-11 16:01N 38°51' W 010°07'816.5
2018-Feb-11 15:30N 38°59' W 010°07'816.5
2018-Feb-11 15:00N 39°07' W 010°07'816.3
2018-Feb-11 14:30N 39°15' W 010°07'816.3
2018-Feb-11 14:00N 39°24' W 010°06'54014.2
2018-Feb-09 23:49N 47°49' W 005°42'715.2
2018-Feb-09 23:23N 47°55' W 005°45'714.8
2018-Feb-09 22:57N 48°02' W 005°47'514.9
2018-Feb-09 22:36N 48°07' W 005°48'14313.5
2018-Feb-09 12:01N 49°50' W 003°18'2717.9
2018-Feb-09 10:30N 50°01' W 002°39'2818.7
2018-Feb-09 09:00N 50°07' W 001°57'1019.1
2018-Feb-09 08:30N 50°03' W 001°43'1019.7
2018-Feb-09 08:00N 49°59' W 001°29'4020.2
2018-Feb-09 06:00N 49°41' W 000°33'  
Track history (hours):
 
Tides and Currents Weather Stations Pressure Air Temp Water Temp Dewpoint Dewpoint Depression Visibility Wind Speed Wind Dir Waves Ship Positions

MOL Paramount

Last reported at 2018-Feb-18 20:17 UTC. Time now 2018-Feb-19 05:48 UTC.
Position N 38°27' E 015°54'.

Length 293 m; draft 11.7 m.

Type: Cargo ship. MMSI: 371519000.

Date/timePositionNaut miles runAvg speedWind from/ knotsBaromVisibWave heightAir tempDewpointWater temp
2018-Feb-18 20:17N 38°27' E 015°54'8 7.3
2018-Feb-18 19:08N 38°33' E 015°47'215.0
2018-Feb-18 18:59N 38°35' E 015°45'917.8
2018-Feb-18 18:28N 38°43' E 015°39'1018.2
2018-Feb-18 17:57N 38°51' E 015°32'918.0
2018-Feb-18 17:28N 38°58' E 015°27'918.2
2018-Feb-18 17:00N 39°05' E 015°20'1918.3
2018-Feb-18 15:58N 39°21' E 015°07'918.5
2018-Feb-18 15:28N 39°28' E 014°60'1818.4
2018-Feb-18 14:29N 39°44' E 014°48'918.0
2018-Feb-18 14:00N 39°51' E 014°42'3118.3
2018-Feb-18 12:18N 40°17' E 014°20'1819.4
2018-Feb-18 11:24N 40°31' E 014°06'718.8
2018-Feb-18 11:00N 40°38' E 014°10'917.6
2018-Feb-18 10:30N 40°45' E 014°16'5 9.0
2018-Feb-18 09:59N 40°50' E 014°17'0 0.4
2018-Feb-18 09:25N 40°50' E 014°17'0 0.0
2018-Feb-18 08:58N 40°50' E 014°17'0 0.0
2018-Feb-18 08:28N 40°50' E 014°17'0 0.0
2018-Feb-18 07:55N 40°50' E 014°17'0 0.0
2018-Feb-18 07:01N 40°50' E 014°17'0 0.1
2018-Feb-18 06:43N 40°50' E 014°17'20 1.7
2018-Feb-17 19:10N 40°39' E 013°56'316.1
2018-Feb-17 19:00N 40°39' E 013°53'915.9
2018-Feb-17 18:25N 40°41' E 013°41'20415.9
2018-Feb-17 05:35N 42°31' E 009°51'316.3
2018-Feb-17 05:24N 42°34' E 009°49'3316.0
2018-Feb-17 03:19N 43°05' E 009°36'515.9
2018-Feb-17 03:00N 43°10' E 009°38'816.4
2018-Feb-17 02:30N 43°18' E 009°40'816.7
2018-Feb-17 02:00N 43°26' E 009°42'816.3
2018-Feb-17 01:30N 43°34' E 009°44'816.2
2018-Feb-17 01:00N 43°42' E 009°47'816.8
2018-Feb-17 00:30N 43°51' E 009°49'816.5
2018-Feb-17 00:00N 43°59' E 009°51'611.1
2018-Feb-16 23:30N 44°04' E 009°51'2 4.3
2018-Feb-16 23:00N 44°06' E 009°51'0 0.0
2018-Feb-16 22:30N 44°06' E 009°51'0 0.0
2018-Feb-16 22:00N 44°06' E 009°51'0 0.0
2018-Feb-16 21:30N 44°06' E 009°51'0 0.0
2018-Feb-16 21:00N 44°06' E 009°51'0 0.0
2018-Feb-16 20:30N 44°06' E 009°51'0 0.0
2018-Feb-16 20:00N 44°06' E 009°51'0 0.0
2018-Feb-16 19:30N 44°06' E 009°51'0 0.0
2018-Feb-16 19:00N 44°06' E 009°51'0 0.0
2018-Feb-16 18:30N 44°06' E 009°51'0 0.0
2018-Feb-16 18:00N 44°06' E 009°51'0 0.0
2018-Feb-16 17:30N 44°06' E 009°51'0 0.0
2018-Feb-16 17:00N 44°06' E 009°51'0 0.0
2018-Feb-16 16:24N 44°06' E 009°51'0 0.0
2018-Feb-16 15:57N 44°06' E 009°51'0 0.0
2018-Feb-16 15:30N 44°06' E 009°51'0 0.0
2018-Feb-16 15:00N 44°06' E 009°51'0 0.0
2018-Feb-16 14:30N 44°06' E 009°51'0 0.0
2018-Feb-16 14:00N 44°06' E 009°51'0 0.0
2018-Feb-16 13:27N 44°06' E 009°51'0 0.0
2018-Feb-16 12:57N 44°06' E 009°51'0 0.0
2018-Feb-16 12:30N 44°06' E 009°51'0 0.7
2018-Feb-16 12:00N 44°06' E 009°51'3 6.8
2018-Feb-16 11:30N 44°03' E 009°52'4 8.6
2018-Feb-16 11:00N 43°60' E 009°56'2 4.0
2018-Feb-16 10:30N 43°58' E 009°55'0 0.6
2018-Feb-16 10:00N 43°58' E 009°55'1 2.1
2018-Feb-16 09:30N 43°57' E 009°55'2 4.2
2018-Feb-16 09:00N 43°55' E 009°52'2 4.6
2018-Feb-16 08:30N 43°58' E 009°52'1 2.1
2018-Feb-16 08:00N 43°57' E 009°53'612.1
2018-Feb-16 07:30N 43°52' E 009°48'612.5
2018-Feb-16 07:00N 43°51' E 009°40'713.5
2018-Feb-16 06:30N 43°49' E 009°31'713.3
2018-Feb-16 06:00N 43°47' E 009°22'713.3
2018-Feb-16 05:30N 43°44' E 009°14'713.3
2018-Feb-16 05:00N 43°41' E 009°05'713.5
2018-Feb-16 04:30N 43°39' E 008°57'713.3
2018-Feb-16 04:00N 43°36' E 008°48'713.8
2018-Feb-16 03:31N 43°34' E 008°40'714.1
2018-Feb-16 03:00N 43°31' E 008°31'714.8
2018-Feb-16 02:30N 43°28' E 008°21'4114.6
2018-Feb-15 23:43N 43°12' E 007°29'415.1
2018-Feb-15 23:27N 43°11' E 007°24'614.8
2018-Feb-15 23:01N 43°08' E 007°16'714.4
2018-Feb-15 22:30N 43°06' E 007°07'8013.3
2018-Feb-15 16:29N 43°04' E 005°18'612.9
2018-Feb-15 16:00N 43°06' E 005°10'612.5
2018-Feb-15 15:30N 43°08' E 005°01'613.1
2018-Feb-15 15:00N 43°14' E 004°60'713.2
2018-Feb-15 14:30N 43°20' E 004°58'5 9.7
2018-Feb-15 14:00N 43°24' E 004°53'2 4.7
2018-Feb-15 13:30N 43°25' E 004°51'0 0.7
2018-Feb-15 12:59N 43°25' E 004°50'0 0.0
2018-Feb-15 12:29N 43°25' E 004°50'0 0.0
2018-Feb-15 11:59N 43°25' E 004°50'0 0.0
2018-Feb-15 11:29N 43°25' E 004°50'0 0.0
2018-Feb-15 10:59N 43°25' E 004°50'0 0.0
2018-Feb-15 10:29N 43°25' E 004°50'0 0.0
2018-Feb-15 09:59N 43°25' E 004°50'0 0.0
2018-Feb-15 09:29N 43°25' E 004°50'0 0.0
2018-Feb-15 08:59N 43°25' E 004°50'0 0.0
2018-Feb-15 08:29N 43°25' E 004°50'0 0.0
2018-Feb-15 07:58N 43°25' E 004°50'0 0.0
2018-Feb-15 07:29N 43°25' E 004°50'0 0.0
2018-Feb-15 06:59N 43°25' E 004°50'0 0.0
2018-Feb-15 06:29N 43°25' E 004°50'0 0.0
2018-Feb-15 05:59N 43°25' E 004°50'0 0.0
2018-Feb-15 05:29N 43°25' E 004°50'0 0.0
2018-Feb-15 04:58N 43°25' E 004°50'0 0.0
2018-Feb-15 04:29N 43°25' E 004°50'1 1.7
2018-Feb-15 04:01N 43°25' E 004°51'4 8.3
2018-Feb-15 03:31N 43°23' E 004°56'4 8.1
2018-Feb-15 03:00N 43°20' E 004°59'3 5.1
2018-Feb-15 02:31N 43°17' E 005°00'3 5.9
2018-Feb-15 02:00N 43°15' E 005°02'510.1
2018-Feb-15 01:30N 43°10' E 005°04'510.2
2018-Feb-15 01:01N 43°05' E 005°03'4 8.1
2018-Feb-15 00:31N 43°01' E 005°01'4 8.1
2018-Feb-15 00:01N 42°58' E 004°58'368 9.2
2018-Feb-13 08:07N 38°09' W 000°02'315.4
2018-Feb-13 07:56N 38°06' W 000°04'715.6
2018-Feb-13 07:31N 38°00' W 000°07'816.0
2018-Feb-13 06:59N 37°53' W 000°13'1015.8
2018-Feb-13 06:20N 37°45' W 000°21'516.0
2018-Feb-13 06:00N 37°41' W 000°25'815.9
2018-Feb-13 05:30N 37°34' W 000°30'815.8
2018-Feb-13 05:00N 37°29' W 000°37'815.7
2018-Feb-13 04:30N 37°23' W 000°45'815.6
2018-Feb-13 04:01N 37°18' W 000°52'815.8
2018-Feb-13 03:31N 37°13' W 000°59'21315.2
2018-Feb-12 13:30N 36°01' W 005°09'918.2
2018-Feb-12 13:00N 35°60' W 005°20'917.3
2018-Feb-12 12:31N 35°57' W 005°30'22614.4
2018-Feb-11 20:51N 37°33' W 009°46'2316.0
2018-Feb-11 19:25N 37°55' W 009°53'716.3
2018-Feb-11 19:00N 38°02' W 009°54'816.8
2018-Feb-11 18:30N 38°10' W 009°57'816.9
2018-Feb-11 18:00N 38°18' W 009°59'816.8
2018-Feb-11 17:30N 38°26' W 010°02'816.7
2018-Feb-11 17:00N 38°34' W 010°04'816.8
2018-Feb-11 16:31N 38°42' W 010°07'816.9
2018-Feb-11 16:01N 38°51' W 010°07'816.5
2018-Feb-11 15:30N 38°59' W 010°07'816.5
2018-Feb-11 15:00N 39°07' W 010°07'816.3
2018-Feb-11 14:30N 39°15' W 010°07'816.3
2018-Feb-11 14:00N 39°24' W 010°06'54014.2
2018-Feb-09 23:49N 47°49' W 005°42'715.2
2018-Feb-09 23:23N 47°55' W 005°45'714.8
2018-Feb-09 22:57N 48°02' W 005°47'514.9
2018-Feb-09 22:36N 48°07' W 005°48'14313.5
2018-Feb-09 12:01N 49°50' W 003°18'2717.9
2018-Feb-09 10:30N 50°01' W 002°39'2818.7
2018-Feb-09 09:00N 50°07' W 001°57'1019.1
2018-Feb-09 08:30N 50°03' W 001°43'1019.7
2018-Feb-09 08:00N 49°59' W 001°29'4020.2
2018-Feb-09 06:00N 49°41' W 000°33'  

Dump ship's entire track history